createdAt,value
2017-10-05T00:00:49.067Z,81.45
2017-10-05T00:01:49.099Z,81.16
2017-10-05T00:03:42.699Z,81.07
2017-10-05T00:04:42.674Z,81.26
2017-10-05T00:06:37.140Z,81.45
2017-10-05T00:07:37.163Z,81.74
2017-10-05T00:09:30.715Z,81.55
2017-10-05T00:10:30.731Z,81.65
2017-10-05T00:12:23.731Z,81.45
2017-10-05T00:13:23.739Z,81.41
2017-10-05T00:15:16.731Z,81.70
2017-10-05T00:16:16.722Z,81.89
2017-10-05T00:18:09.755Z,81.55
2017-10-05T00:19:09.789Z,81.45
2017-10-05T00:21:02.756Z,81.51
2017-10-05T00:22:02.787Z,81.45
2017-10-05T00:23:56.339Z,82.12
2017-10-05T00:24:56.339Z,82.31
2017-10-05T00:26:49.795Z,82.12
2017-10-05T00:27:49.828Z,82.46
2017-10-05T00:29:43.330Z,82.98
2017-10-05T00:30:43.323Z,82.94
2017-10-05T00:32:36.916Z,82.46
2017-10-05T00:33:36.940Z,82.84
2017-10-05T00:35:29.884Z,83.23
2017-10-05T00:36:29.924Z,83.23
2017-10-05T00:38:23.388Z,83.61
2017-10-05T00:39:23.392Z,83.80
2017-10-05T00:41:17.895Z,83.70
2017-10-05T00:42:17.888Z,84.19
2017-10-05T00:44:12.335Z,83.90
2017-10-05T00:45:12.375Z,84.56
2017-10-05T00:47:05.873Z,84.19
2017-10-05T00:48:05.863Z,83.90
2017-10-05T00:49:59.407Z,84.28
2017-10-05T00:50:59.448Z,84.38
2017-10-05T00:52:52.424Z,84.76
2017-10-05T00:53:52.424Z,84.85
2017-10-05T00:55:46.919Z,84.85
2017-10-05T00:56:46.920Z,85.05
2017-10-05T00:58:40.408Z,84.85
2017-10-05T00:59:40.448Z,84.85
2017-10-05T01:01:33.420Z,85.05
2017-10-05T01:02:33.511Z,85.14
2017-10-05T01:04:27.930Z,85.14
2017-10-05T01:05:27.928Z,84.76
2017-10-05T01:07:21.464Z,84.76
2017-10-05T01:08:21.472Z,85.14
2017-10-05T01:10:15.969Z,85.14
2017-10-05T01:11:15.976Z,85.42
2017-10-05T01:13:10.457Z,85.05
2017-10-05T01:14:10.457Z,85.24
2017-10-05T01:16:03.976Z,85.62
2017-10-05T01:17:04.018Z,85.24
2017-10-05T01:18:58.544Z,85.05
2017-10-05T01:19:58.513Z,85.05
2017-10-05T01:21:52.097Z,85.05
2017-10-05T01:22:52.129Z,85.33
2017-10-05T01:24:46.601Z,85.62
2017-10-05T01:25:46.617Z,85.81
2017-10-05T01:27:40.121Z,85.81
2017-10-05T01:28:40.154Z,85.33
2017-10-05T01:30:34.673Z,86.00
2017-10-05T01:31:34.690Z,85.33
2017-10-05T01:33:29.201Z,86.00
2017-10-05T01:34:29.235Z,85.52
2017-10-05T01:36:23.689Z,85.62
2017-10-05T01:37:23.746Z,86.29
2017-10-05T01:39:17.405Z,86.00
2017-10-05T01:40:17.234Z,85.90
2017-10-05T01:42:11.706Z,86.10
2017-10-05T01:43:11.763Z,86.19
2017-10-05T01:45:05.221Z,86.96
2017-10-05T01:46:05.226Z,87.15
2017-10-05T01:47:59.763Z,87.43
2017-10-05T01:48:59.818Z,87.15
2017-10-05T01:50:53.266Z,87.53
2017-10-05T01:51:53.274Z,87.62
2017-10-05T01:53:47.763Z,87.24
2017-10-05T01:54:47.786Z,87.43
2017-10-05T01:56:42.218Z,87.15
2017-10-05T01:57:42.258Z,87.43
2017-10-05T01:59:36.746Z,87.34
2017-10-05T02:00:36.755Z,87.43
2017-10-05T02:02:30.275Z,87.72
2017-10-05T02:03:30.299Z,87.34
2017-10-05T02:05:23.323Z,87.53
2017-10-05T02:06:23.480Z,87.34
2017-10-05T02:08:16.771Z,87.34
2017-10-05T02:09:16.835Z,87.43
2017-10-05T02:11:10.276Z,87.43
2017-10-05T02:12:10.307Z,88.29
2017-10-05T02:14:04.849Z,88.58
2017-10-05T02:15:04.892Z,87.91
2017-10-05T02:16:57.915Z,88.39
2017-10-05T02:17:57.924Z,88.58
2017-10-05T02:19:52.387Z,88.68
2017-10-05T02:20:52.419Z,88.20
2017-10-05T02:22:45.403Z,88.68
2017-10-05T02:23:45.420Z,88.25
2017-10-05T02:25:38.980Z,89.20
2017-10-05T02:26:38.979Z,88.92
2017-10-05T02:28:33.471Z,89.25
2017-10-05T02:29:33.467Z,89.30
2017-10-05T02:31:27.917Z,89.39
2017-10-05T02:32:27.957Z,89.11
2017-10-05T02:34:22.452Z,89.11
2017-10-05T02:35:22.452Z,89.20
2017-10-05T02:37:15.981Z,88.82
2017-10-05T02:38:16.013Z,89.11
2017-10-05T02:40:09.476Z,89.30
2017-10-05T02:41:09.500Z,89.59
2017-10-05T02:43:02.974Z,89.68
2017-10-05T02:44:03.004Z,89.97
2017-10-05T02:45:56.480Z,89.78
2017-10-05T02:46:56.493Z,89.97
2017-10-05T02:48:49.974Z,90.06
2017-10-05T02:49:49.992Z,89.97
2017-10-05T02:51:44.453Z,89.87
2017-10-05T02:52:44.485Z,89.78
2017-10-05T02:54:38.077Z,89.87
2017-10-05T02:55:38.045Z,90.54
2017-10-05T02:57:31.013Z,90.45
2017-10-05T02:58:31.053Z,89.78
2017-10-05T03:00:24.549Z,90.35
2017-10-05T03:01:24.638Z,90.35
2017-10-05T03:03:18.006Z,89.68
2017-10-05T03:04:18.032Z,90.16
2017-10-05T03:06:11.590Z,90.16
2017-10-05T03:07:11.590Z,90.16
2017-10-05T03:09:04.566Z,90.54
2017-10-05T03:10:04.598Z,90.45
2017-10-05T03:11:59.078Z,90.25
2017-10-05T03:12:59.093Z,90.16
2017-10-05T03:14:52.604Z,89.97
2017-10-05T03:15:52.670Z,90.06
2017-10-05T03:17:47.119Z,90.45
2017-10-05T03:18:47.133Z,90.35
2017-10-05T03:20:40.685Z,90.06
2017-10-05T03:21:40.710Z,90.83
2017-10-05T03:23:35.174Z,90.64
2017-10-05T03:24:35.190Z,90.25
2017-10-05T03:26:28.678Z,90.35
2017-10-05T03:27:28.670Z,90.54
2017-10-05T03:29:23.166Z,90.45
2017-10-05T03:30:23.168Z,89.78
2017-10-05T03:32:16.639Z,90.45
2017-10-05T03:33:16.654Z,90.35
2017-10-05T03:35:10.247Z,90.35
2017-10-05T03:36:10.247Z,90.45
2017-10-05T03:38:04.735Z,90.45
2017-10-05T03:39:04.775Z,90.45
2017-10-05T03:40:58.287Z,90.25
2017-10-05T03:41:58.287Z,90.45
2017-10-05T03:43:51.319Z,90.54
2017-10-05T03:44:51.327Z,89.97
2017-10-05T03:46:45.783Z,90.73
2017-10-05T03:47:45.815Z,90.35
2017-10-05T03:49:40.249Z,90.92
2017-10-05T03:50:40.295Z,91.11
2017-10-05T03:52:33.879Z,91.11
2017-10-05T03:53:33.855Z,91.02
2017-10-05T03:55:28.351Z,90.92
2017-10-05T03:56:28.367Z,91.11
2017-10-05T03:58:22.823Z,91.30
2017-10-05T03:59:22.858Z,91.50
2017-10-05T04:01:17.336Z,90.73
2017-10-05T04:02:17.359Z,91.50
2017-10-05T04:04:10.799Z,91.69
2017-10-05T04:05:10.848Z,91.30
2017-10-05T04:07:05.304Z,91.21
2017-10-05T04:08:05.320Z,91.21
2017-10-05T04:09:59.776Z,91.30
2017-10-05T04:10:59.808Z,91.59
2017-10-05T04:12:54.288Z,91.21
2017-10-05T04:13:54.304Z,91.21
2017-10-05T04:15:48.768Z,90.92
2017-10-05T04:16:48.793Z,90.73
2017-10-05T04:18:42.249Z,91.59
2017-10-05T04:19:42.281Z,91.59
2017-10-05T04:21:35.752Z,91.21
2017-10-05T04:22:35.769Z,91.69
2017-10-05T04:24:29.320Z,91.30
2017-10-05T04:25:29.353Z,91.50
2017-10-05T04:27:22.832Z,91.40
2017-10-05T04:28:22.857Z,91.30
2017-10-05T04:30:16.377Z,91.59
2017-10-05T04:31:16.417Z,91.69
2017-10-05T04:33:09.873Z,91.69
2017-10-05T04:34:09.906Z,91.21
2017-10-05T04:36:03.465Z,90.92
2017-10-05T04:37:03.465Z,91.11
2017-10-05T04:38:57.929Z,91.30
2017-10-05T04:39:57.937Z,91.40
2017-10-05T04:41:51.393Z,90.92
2017-10-05T04:42:51.426Z,91.21
2017-10-05T04:44:44.906Z,91.69
2017-10-05T04:45:44.914Z,91.40
2017-10-05T04:47:39.393Z,91.50
2017-10-05T04:48:39.410Z,91.40
2017-10-05T04:50:32.978Z,92.07
2017-10-05T04:51:32.969Z,91.30
2017-10-05T04:53:27.442Z,91.69
2017-10-05T04:54:27.473Z,91.78
2017-10-05T04:56:21.969Z,91.78
2017-10-05T04:57:21.978Z,91.78
2017-10-05T04:59:16.458Z,91.59
2017-10-05T05:00:16.450Z,91.97
2017-10-05T05:02:10.514Z,91.88
2017-10-05T05:03:09.994Z,91.69
2017-10-05T05:05:03.514Z,91.59
2017-10-05T05:06:03.554Z,91.78
2017-10-05T05:07:57.016Z,91.88
2017-10-05T05:08:57.024Z,91.78
2017-10-05T05:10:51.488Z,91.88
2017-10-05T05:11:51.537Z,92.16
2017-10-05T05:13:44.998Z,92.16
2017-10-05T05:14:45.075Z,91.78
2017-10-05T05:16:39.512Z,91.97
2017-10-05T05:17:39.520Z,91.78
2017-10-05T05:19:33.984Z,92.16
2017-10-05T05:20:34.008Z,92.07
2017-10-05T05:22:27.532Z,92.16
2017-10-05T05:23:27.552Z,92.36
2017-10-05T05:25:22.312Z,92.26
2017-10-05T05:26:22.071Z,91.97
2017-10-05T05:28:15.047Z,92.26
2017-10-05T05:29:15.064Z,92.45
2017-10-05T05:31:09.080Z,91.88
2017-10-05T05:32:09.112Z,91.88
2017-10-05T05:34:02.096Z,92.07
2017-10-05T05:35:02.127Z,92.26
2017-10-05T05:36:55.627Z,92.36
2017-10-05T05:37:55.652Z,92.45
2017-10-05T05:39:50.186Z,92.26
2017-10-05T05:40:50.204Z,92.45
2017-10-05T05:42:44.628Z,92.36
2017-10-05T05:43:44.660Z,92.83
2017-10-05T05:45:38.172Z,94.07
2017-10-05T05:46:38.192Z,93.98
2017-10-05T05:48:33.092Z,93.98
2017-10-05T05:49:40.509Z,94.07
2017-10-05T05:51:25.344Z,94.93
2017-10-05T05:52:25.381Z,94.74
2017-10-05T05:54:19.866Z,94.74
2017-10-05T05:55:19.874Z,94.74
2017-10-05T05:57:14.338Z,94.74
2017-10-05T05:58:14.362Z,94.84
2017-10-05T06:00:07.842Z,95.03
2017-10-05T06:01:07.858Z,95.03
2017-10-05T06:03:02.339Z,94.84
2017-10-05T06:04:02.378Z,95.03
2017-10-05T06:05:55.938Z,95.22
2017-10-05T06:06:55.938Z,95.79
2017-10-05T06:08:49.395Z,95.41
2017-10-05T06:09:49.442Z,95.51
2017-10-05T06:11:42.986Z,95.89
2017-10-05T06:12:42.987Z,95.41
2017-10-05T06:14:36.451Z,96.27
2017-10-05T06:15:36.488Z,96.56
2017-10-05T06:17:30.932Z,96.27
2017-10-05T06:18:30.972Z,96.46
2017-10-05T06:20:24.513Z,96.75
2017-10-05T06:21:24.524Z,96.56
2017-10-05T06:23:17.485Z,96.27
2017-10-05T06:24:17.525Z,96.27
2017-10-05T06:26:12.021Z,97.03
2017-10-05T06:27:12.029Z,96.94
2017-10-05T06:29:06.513Z,96.94
2017-10-05T06:30:06.526Z,96.75
2017-10-05T06:32:00.989Z,96.66
2017-10-05T06:33:01.022Z,97.32
2017-10-05T06:34:55.502Z,96.66
2017-10-05T06:35:55.509Z,96.66
2017-10-05T06:37:49.085Z,96.94
2017-10-05T06:38:49.069Z,96.84
2017-10-05T06:40:42.085Z,97.80
2017-10-05T06:41:42.069Z,96.94
2017-10-05T06:43:35.534Z,97.61
2017-10-05T06:44:35.574Z,97.23
2017-10-05T06:46:29.157Z,97.61
2017-10-05T06:47:29.126Z,97.42
2017-10-05T06:49:22.598Z,97.23
2017-10-05T06:50:22.638Z,97.23
2017-10-05T06:52:17.150Z,97.61
2017-10-05T06:53:17.142Z,97.61
2017-10-05T06:55:11.638Z,97.23
2017-10-05T06:56:11.654Z,97.89
2017-10-05T06:58:06.126Z,97.80
2017-10-05T06:59:06.157Z,97.42
2017-10-05T07:00:59.719Z,97.23
2017-10-05T07:01:59.711Z,98.18
2017-10-05T07:03:53.151Z,98.18
2017-10-05T07:04:53.190Z,98.08
2017-10-05T07:06:47.679Z,98.18
2017-10-05T07:07:47.687Z,98.08
2017-10-05T07:09:42.143Z,97.99
2017-10-05T07:10:42.167Z,97.99
2017-10-05T07:12:35.719Z,98.18
2017-10-05T07:13:35.719Z,98.28
2017-10-05T07:15:29.174Z,98.47
2017-10-05T07:16:29.215Z,98.75
2017-10-05T07:18:22.751Z,98.37
2017-10-05T07:19:22.727Z,98.37
2017-10-05T07:21:16.210Z,98.37
2017-10-05T07:22:16.202Z,98.66
2017-10-05T07:24:10.671Z,98.94
2017-10-05T07:25:10.711Z,98.57
2017-10-05T07:27:04.199Z,98.57
2017-10-05T07:28:04.216Z,98.85
2017-10-05T07:29:57.671Z,98.66
2017-10-05T07:30:57.703Z,98.47
2017-10-05T07:32:51.183Z,98.66
2017-10-05T07:33:51.208Z,98.57
2017-10-05T07:35:44.679Z,98.99
2017-10-05T07:36:44.696Z,98.99
2017-10-05T07:38:38.174Z,98.99
2017-10-05T07:39:38.184Z,98.61
2017-10-05T07:41:31.673Z,98.52
2017-10-05T07:42:31.694Z,98.80
2017-10-05T07:44:25.200Z,98.42
2017-10-05T07:45:25.200Z,98.61
2017-10-05T07:47:19.640Z,98.71
2017-10-05T07:48:19.680Z,98.80
2017-10-05T07:50:14.168Z,99.19
2017-10-05T07:51:14.168Z,99.19
2017-10-05T07:53:07.616Z,98.99
2017-10-05T07:54:07.665Z,99.09
2017-10-05T07:56:01.136Z,99.28
2017-10-05T07:57:01.161Z,99.38
2017-10-05T07:58:54.632Z,99.28
2017-10-05T07:59:54.649Z,99.38
2017-10-05T08:01:48.114Z,98.90
2017-10-05T08:02:48.152Z,99.38
2017-10-05T08:04:41.625Z,98.80
2017-10-05T08:05:41.643Z,99.38
2017-10-05T08:07:35.105Z,99.43
2017-10-05T08:08:35.137Z,99.52
2017-10-05T08:10:28.617Z,99.62
2017-10-05T08:11:28.625Z,99.43
2017-10-05T08:13:22.081Z,99.43
2017-10-05T08:14:22.121Z,99.52
2017-10-05T08:16:15.595Z,99.43
2017-10-05T08:17:15.617Z,99.62
2017-10-05T08:19:09.161Z,99.43
2017-10-05T08:20:09.170Z,99.52
2017-10-05T08:22:02.658Z,99.62
2017-10-05T08:23:02.665Z,99.14
2017-10-05T08:24:56.121Z,99.71
2017-10-05T08:25:56.154Z,99.62
2017-10-05T08:27:49.139Z,99.71
2017-10-05T08:28:49.162Z,99.52
2017-10-05T08:30:42.634Z,99.24
2017-10-05T08:31:42.649Z,99.62
2017-10-05T08:33:36.129Z,99.14
2017-10-05T08:34:36.148Z,99.43
2017-10-05T08:36:29.634Z,99.29
2017-10-05T08:37:29.634Z,99.67
2017-10-05T08:39:22.594Z,99.29
2017-10-05T08:40:22.640Z,99.48
2017-10-05T08:42:17.138Z,99.99
2017-10-05T08:43:17.162Z,99.96
2017-10-05T08:45:10.635Z,99.99
2017-10-05T08:46:10.634Z,99.67
2017-10-05T08:48:04.112Z,99.19
2017-10-05T08:49:04.147Z,99.67
2017-10-05T08:50:58.627Z,99.99
2017-10-05T08:51:58.635Z,99.67
2017-10-05T08:53:52.075Z,99.48
2017-10-05T08:54:52.123Z,99.52
2017-10-05T08:56:45.596Z,98.95
2017-10-05T08:57:45.612Z,99.81
2017-10-05T08:59:39.172Z,99.43
2017-10-05T09:00:39.212Z,99.72
2017-10-05T09:02:33.660Z,99.52
2017-10-05T09:03:33.667Z,99.72
2017-10-05T09:05:27.124Z,99.52
2017-10-05T09:06:27.163Z,99.52
2017-10-05T09:08:20.636Z,99.52
2017-10-05T09:09:20.644Z,99.24
2017-10-05T09:11:13.612Z,99.91
2017-10-05T09:12:13.651Z,99.52
2017-10-05T09:14:06.644Z,99.77
2017-10-05T09:15:06.660Z,99.38
2017-10-05T09:17:00.116Z,99.29
2017-10-05T09:18:00.156Z,99.38
2017-10-05T09:19:53.620Z,99.38
2017-10-05T09:20:53.636Z,99.19
2017-10-05T09:22:47.129Z,98.57
2017-10-05T09:23:47.133Z,99.00
2017-10-05T09:25:40.588Z,99.00
2017-10-05T09:26:40.628Z,98.91
2017-10-05T09:28:34.133Z,97.85
2017-10-05T09:29:34.125Z,97.95
2017-10-05T09:31:27.580Z,95.65
2017-10-05T09:32:27.605Z,95.07
2017-10-05T09:34:21.093Z,95.17
2017-10-05T09:35:21.112Z,94.69
2017-10-05T09:37:14.589Z,95.17
2017-10-05T09:38:14.605Z,94.21
2017-10-05T09:40:07.566Z,95.17
2017-10-05T09:41:07.605Z,94.93
2017-10-05T09:43:01.077Z,93.69
2017-10-05T09:44:01.102Z,92.15
2017-10-05T09:45:54.558Z,94.40
2017-10-05T09:46:54.598Z,92.20
2017-10-05T09:48:48.078Z,91.72
2017-10-05T09:49:48.094Z,91.14
2017-10-05T09:51:41.547Z,90.57
2017-10-05T09:52:41.587Z,89.95
2017-10-05T09:54:35.082Z,90.19
2017-10-05T09:55:35.083Z,90.86
2017-10-05T09:57:28.059Z,89.76
2017-10-05T09:58:28.098Z,90.62
2017-10-05T10:00:21.091Z,89.37
2017-10-05T10:01:21.099Z,88.47
2017-10-05T10:03:14.555Z,88.37
2017-10-05T10:04:14.596Z,89.90
2017-10-05T10:06:07.587Z,88.99
2017-10-05T10:07:07.595Z,86.98
2017-10-05T10:09:01.059Z,88.27
2017-10-05T10:10:01.099Z,86.88
2017-10-05T10:11:54.684Z,86.72
2017-10-05T10:12:54.699Z,86.25
2017-10-05T10:14:48.180Z,85.91
2017-10-05T10:15:48.204Z,83.74
2017-10-05T10:17:41.676Z,82.87
2017-10-05T10:18:41.700Z,81.96
2017-10-05T10:20:35.172Z,83.78
2017-10-05T10:21:35.204Z,83.45
2017-10-05T10:23:28.196Z,82.07
2017-10-05T10:24:28.212Z,83.18
2017-10-05T10:26:21.692Z,83.70
2017-10-05T10:27:21.716Z,82.84
2017-10-05T10:29:15.205Z,81.15
2017-10-05T10:30:15.224Z,81.87
2017-10-05T10:32:08.693Z,80.38
2017-10-05T10:33:08.732Z,79.94
2017-10-05T10:35:02.233Z,78.13
2017-10-05T10:36:02.232Z,78.09
2017-10-05T10:37:55.709Z,76.31
2017-10-05T10:38:55.749Z,75.88
2017-10-05T10:40:49.228Z,74.50
2017-10-05T10:41:49.253Z,72.64
2017-10-05T10:43:42.749Z,72.17
2017-10-05T10:44:42.757Z,70.72
2017-10-05T10:46:36.229Z,68.29
2017-10-05T10:47:36.269Z,70.89
2017-10-05T10:49:29.742Z,68.29
2017-10-05T10:50:29.773Z,71.17
2017-10-05T10:52:23.325Z,72.19
2017-10-05T10:53:23.325Z,71.19
2017-10-05T10:55:16.806Z,72.50
2017-10-05T10:56:16.846Z,72.31
2017-10-05T10:58:10.333Z,73.46
2017-10-05T10:59:10.350Z,73.04
2017-10-05T11:01:03.806Z,73.72
2017-10-05T11:02:03.856Z,74.10
2017-10-05T11:03:56.853Z,74.77
2017-10-05T11:04:56.870Z,73.87
2017-10-05T11:06:50.350Z,72.95
2017-10-05T11:07:50.366Z,74.01
2017-10-05T11:09:43.862Z,72.06
2017-10-05T11:10:43.878Z,71.19
2017-10-05T11:12:37.342Z,69.18
2017-10-05T11:13:37.382Z,69.51
2017-10-05T11:15:30.367Z,64.37
2017-10-05T11:16:30.391Z,60.22
2017-10-05T11:18:23.877Z,61.74
2017-10-05T11:19:23.902Z,61.19
2017-10-05T11:21:17.398Z,65.08
2017-10-05T11:22:17.398Z,64.95
2017-10-05T11:24:10.861Z,66.65
2017-10-05T11:25:10.905Z,67.00
2017-10-05T11:27:04.389Z,68.83
2017-10-05T11:28:04.410Z,68.02
2017-10-05T11:29:57.869Z,69.72
2017-10-05T11:30:57.909Z,70.87
2017-10-05T11:32:51.397Z,70.62
2017-10-05T11:33:51.412Z,68.35
2017-10-05T11:35:44.877Z,69.56
2017-10-05T11:36:44.989Z,68.02
2017-10-05T11:38:38.437Z,67.77
2017-10-05T11:39:38.421Z,64.40
2017-10-05T11:41:31.389Z,60.96
2017-10-05T11:42:31.424Z,55.62
2017-10-05T11:44:24.907Z,50.16
2017-10-05T11:45:24.930Z,53.17
2017-10-05T11:47:18.395Z,50.31
2017-10-05T11:48:18.491Z,45.69
2017-10-05T11:50:11.979Z,45.31
2017-10-05T11:51:11.947Z,45.62
2017-10-05T11:53:05.444Z,43.35
2017-10-05T11:54:05.491Z,40.11
2017-10-05T11:55:58.994Z,39.59
2017-10-05T11:56:59.002Z,40.01
2017-10-05T11:58:52.467Z,39.00
2017-10-05T11:59:52.514Z,41.84
2017-10-05T12:01:46.003Z,44.45
2017-10-05T12:02:46.043Z,45.57
2017-10-05T12:04:39.515Z,48.81
2017-10-05T12:05:39.547Z,45.32
2017-10-05T12:07:32.555Z,44.42
2017-10-05T12:08:32.579Z,44.10
2017-10-05T12:10:27.051Z,45.16
2017-10-05T12:11:27.099Z,46.75
2017-10-05T12:13:20.595Z,49.27
2017-10-05T12:14:20.619Z,51.17
2017-10-05T12:16:14.123Z,53.29
2017-10-05T12:17:14.131Z,54.52
2017-10-05T12:19:07.603Z,54.58
2017-10-05T12:20:07.643Z,54.78
2017-10-05T12:22:02.148Z,55.43
2017-10-05T12:23:02.148Z,55.90
2017-10-05T12:24:55.611Z,56.26
2017-10-05T12:25:55.669Z,55.88
2017-10-05T12:27:49.140Z,55.57
2017-10-05T12:28:49.164Z,50.79
2017-10-05T12:30:42.644Z,44.45
2017-10-05T12:31:42.667Z,41.30
2017-10-05T12:33:36.156Z,36.24
2017-10-05T12:34:36.172Z,33.07
2017-10-05T12:36:30.643Z,35.22
2017-10-05T12:37:30.685Z,37.96
2017-10-05T12:39:24.212Z,39.12
2017-10-05T12:40:24.236Z,36.96
2017-10-05T12:42:17.700Z,36.64
2017-10-05T12:43:17.748Z,39.28
2017-10-05T12:45:10.764Z,38.39
2017-10-05T12:46:10.781Z,37.98
2017-10-05T12:48:04.293Z,38.91
2017-10-05T12:49:04.341Z,40.59
2017-10-05T12:50:57.333Z,43.64
2017-10-05T12:51:57.349Z,45.18
2017-10-05T12:53:50.845Z,44.23
2017-10-05T12:54:50.917Z,41.27
2017-10-05T12:56:44.357Z,34.12
2017-10-05T12:57:44.373Z,30.96
2017-10-05T12:59:38.853Z,26.93
2017-10-05T13:00:38.893Z,25.74
2017-10-05T13:02:32.389Z,25.38
2017-10-05T13:03:32.405Z,25.51
2017-10-05T13:05:26.245Z,23.61
2017-10-05T13:06:26.229Z,25.61
2017-10-05T13:08:19.302Z,20.60
2017-10-05T13:09:19.278Z,21.10
2017-10-05T13:11:12.837Z,19.13
2017-10-05T13:12:12.966Z,20.03
2017-10-05T13:14:06.310Z,17.94
2017-10-05T13:15:06.365Z,18.63
2017-10-05T13:16:59.366Z,19.92
2017-10-05T13:17:59.390Z,19.13
2017-10-05T13:19:52.388Z,18.52
2017-10-05T13:20:52.430Z,19.73
2017-10-05T13:22:45.919Z,21.22
2017-10-05T13:23:45.950Z,19.65
2017-10-05T13:25:39.439Z,20.47
2017-10-05T13:26:39.478Z,18.48
2017-10-05T13:28:32.974Z,20.45
2017-10-05T13:29:32.999Z,18.88
2017-10-05T13:31:26.479Z,20.48
2017-10-05T13:32:26.527Z,22.05
2017-10-05T13:34:21.031Z,25.91
2017-10-05T13:35:21.054Z,26.40
2017-10-05T13:37:14.527Z,27.34
2017-10-05T13:38:14.563Z,26.76
2017-10-05T13:40:07.586Z,28.05
2017-10-05T13:41:07.602Z,27.65
2017-10-05T13:43:01.079Z,29.06
2017-10-05T13:44:01.125Z,31.10
2017-10-05T13:45:55.613Z,31.65
2017-10-05T13:46:55.643Z,33.28
2017-10-05T13:48:50.111Z,32.78
2017-10-05T13:49:50.158Z,33.54
2017-10-05T13:51:43.664Z,34.75
2017-10-05T13:52:43.683Z,35.60
2017-10-05T13:54:38.162Z,37.04
2017-10-05T13:55:38.209Z,36.53
2017-10-05T13:57:31.209Z,38.56
2017-10-05T13:58:31.225Z,39.94
2017-10-05T14:00:24.705Z,39.06
2017-10-05T14:01:24.753Z,38.85
2017-10-05T14:03:18.363Z,41.27
2017-10-05T14:04:18.388Z,40.96
2017-10-05T14:06:11.890Z,41.05
2017-10-05T14:07:11.899Z,41.33
2017-10-05T14:09:05.365Z,41.93
2017-10-05T14:10:05.411Z,41.23
2017-10-05T14:11:58.907Z,41.78
2017-10-05T14:12:59.043Z,42.66
2017-10-05T14:14:53.018Z,42.66
2017-10-05T14:15:52.434Z,43.04
2017-10-05T14:17:46.203Z,45.09
2017-10-05T14:18:46.172Z,44.51
2017-10-05T14:20:40.667Z,43.04
2017-10-05T14:21:40.683Z,43.43
2017-10-05T14:23:34.156Z,44.39
2017-10-05T14:24:34.195Z,43.89
2017-10-05T14:26:27.699Z,44.66
2017-10-05T14:27:27.715Z,44.15
2017-10-05T14:29:21.234Z,45.00
2017-10-05T14:30:21.266Z,45.10
2017-10-05T14:32:14.264Z,45.36
2017-10-05T14:33:15.246Z,45.56
2017-10-05T14:35:07.279Z,46.33
2017-10-05T14:36:07.311Z,47.10
2017-10-05T14:38:00.271Z,45.56
2017-10-05T14:39:00.319Z,45.75
2017-10-05T14:40:53.840Z,47.49
2017-10-05T14:41:53.847Z,47.49
2017-10-05T14:43:47.462Z,47.00
2017-10-05T14:44:47.431Z,47.97
2017-10-05T14:46:41.919Z,48.23
2017-10-05T14:47:41.982Z,48.44
2017-10-05T14:49:36.455Z,49.22
2017-10-05T14:50:36.543Z,49.51
2017-10-05T14:52:30.827Z,49.07
2017-10-05T14:53:31.921Z,48.40
2017-10-05T14:55:34.426Z,48.52
2017-10-05T14:56:23.793Z,48.30
2017-10-05T14:58:17.193Z,49.07
2017-10-05T14:59:17.274Z,47.44
2017-10-05T15:01:11.290Z,48.66
2017-10-05T15:02:10.977Z,50.32
2017-10-05T15:04:05.099Z,50.62
2017-10-05T15:05:05.810Z,50.26
2017-10-05T15:06:57.305Z,47.92
2017-10-05T15:07:57.414Z,49.27
2017-10-05T15:09:51.349Z,49.22
2017-10-05T15:10:50.629Z,47.36
2017-10-05T15:12:44.189Z,48.13
2017-10-05T15:13:43.181Z,48.13
2017-10-05T15:15:36.301Z,48.30
2017-10-05T15:16:36.285Z,48.59
2017-10-05T15:18:29.877Z,50.38
2017-10-05T15:19:29.901Z,49.92
2017-10-05T15:21:23.391Z,45.96
2017-10-05T15:22:23.414Z,48.01
2017-10-05T15:24:16.942Z,45.67
2017-10-05T15:25:16.982Z,45.57
2017-10-05T15:27:18.053Z,45.96
2017-10-05T15:28:10.015Z,46.15
2017-10-05T15:30:03.110Z,46.15
2017-10-05T15:31:03.045Z,46.33
2017-10-05T15:32:56.510Z,48.57
2017-10-05T15:33:56.086Z,47.99
2017-10-05T15:35:49.094Z,45.45
2017-10-05T15:36:49.101Z,45.26
2017-10-05T15:38:42.054Z,44.93
2017-10-05T15:39:42.087Z,46.73
2017-10-05T15:41:35.166Z,47.70
2017-10-05T15:42:35.198Z,47.99
2017-10-05T15:44:28.182Z,48.18
2017-10-05T15:45:28.222Z,49.15
2017-10-05T15:47:21.678Z,49.32
2017-10-05T15:48:21.710Z,49.02
2017-10-05T15:50:14.735Z,50.21
2017-10-05T15:51:14.750Z,49.60
2017-10-05T15:53:07.767Z,49.99
2017-10-05T15:54:07.791Z,50.57
2017-10-05T15:56:00.783Z,49.89
2017-10-05T15:57:00.871Z,50.15
2017-10-05T15:58:53.775Z,51.12
2017-10-05T15:59:53.815Z,51.98
2017-10-05T16:01:48.342Z,53.11
2017-10-05T16:02:48.351Z,53.98
2017-10-05T16:04:42.840Z,55.30
2017-10-05T16:05:41.919Z,55.85
2017-10-05T16:07:34.890Z,55.94
2017-10-05T16:08:34.943Z,56.33
2017-10-05T16:10:27.960Z,57.48
2017-10-05T16:11:27.960Z,56.52
2017-10-05T16:13:20.999Z,56.88
2017-10-05T16:14:21.471Z,56.40
2017-10-05T16:16:13.992Z,56.68
2017-10-05T16:17:14.025Z,57.33
2017-10-05T16:19:07.000Z,57.90
2017-10-05T16:20:07.024Z,58.58
2017-10-05T16:22:00.016Z,57.62
2017-10-05T16:23:00.073Z,57.43
2017-10-05T16:24:53.024Z,58.20
2017-10-05T16:25:53.040Z,58.10
2017-10-05T16:27:46.081Z,58.55
2017-10-05T16:28:46.072Z,58.84
2017-10-05T16:30:39.040Z,59.03
2017-10-05T16:31:39.075Z,59.70
2017-10-05T16:33:32.041Z,59.70
2017-10-05T16:34:32.089Z,59.51
2017-10-05T16:36:25.129Z,59.99
2017-10-05T16:37:25.097Z,59.67
2017-10-05T16:39:18.113Z,60.92
2017-10-05T16:40:18.129Z,60.53
2017-10-05T16:42:11.090Z,60.15
2017-10-05T16:43:11.129Z,60.35
2017-10-05T16:45:04.158Z,60.72
2017-10-05T16:46:04.153Z,60.63
2017-10-05T16:47:57.113Z,60.53
2017-10-05T16:48:57.169Z,60.63
2017-10-05T16:52:22.313Z,62.23
2017-10-05T16:53:22.329Z,61.85
2017-10-05T16:55:15.305Z,62.26
2017-10-05T16:56:15.369Z,61.98
2017-10-05T16:58:08.369Z,61.49
2017-10-05T16:59:08.346Z,61.88
2017-10-05T17:01:01.834Z,61.88
2017-10-05T17:02:01.363Z,62.26
2017-10-05T17:03:54.386Z,62.26
2017-10-05T17:04:54.369Z,61.78
2017-10-05T17:06:47.345Z,61.46
2017-10-05T17:07:47.382Z,62.04
2017-10-05T17:09:40.367Z,62.33
2017-10-05T17:10:40.383Z,62.71
2017-10-05T17:12:33.358Z,63.38
2017-10-05T17:13:33.406Z,63.76
2017-10-05T17:15:26.405Z,64.25
2017-10-05T17:16:26.440Z,64.15
2017-10-05T17:18:19.382Z,64.25
2017-10-05T17:19:19.414Z,64.15
2017-10-05T17:21:12.446Z,64.72
2017-10-05T17:22:13.406Z,64.43
2017-10-05T17:24:05.905Z,64.50
2017-10-05T17:25:05.946Z,64.98
2017-10-05T17:26:59.559Z,65.36
2017-10-05T17:27:59.520Z,65.36
2017-10-05T17:29:53.032Z,64.98
2017-10-05T17:30:53.032Z,65.65
2017-10-05T17:32:46.568Z,65.81
2017-10-05T17:33:46.608Z,65.75
2017-10-05T17:35:39.640Z,65.71
2017-10-05T17:36:39.624Z,66.58
2017-10-05T17:38:33.184Z,66.00
2017-10-05T17:39:32.785Z,66.38
2017-10-05T17:41:34.016Z,66.09
2017-10-05T17:42:26.801Z,66.29
2017-10-05T17:44:19.696Z,66.38
2017-10-05T17:45:19.777Z,66.29
2017-10-05T17:50:21.224Z,67.54
2017-10-05T17:51:29.069Z,67.82
2017-10-05T17:53:14.984Z,67.91
2017-10-05T17:54:14.953Z,67.34
2017-10-05T17:56:12.049Z,67.82
2017-10-05T17:57:12.073Z,67.82
2017-10-05T17:59:05.169Z,69.42
2017-10-05T18:00:05.624Z,69.51
2017-10-05T18:01:58.664Z,70.18
2017-10-05T18:02:58.449Z,70.37
2017-10-05T18:04:52.184Z,70.56
2017-10-05T18:05:52.256Z,70.47
2017-10-05T18:07:47.968Z,70.18
2017-10-05T18:08:47.587Z,70.28
2017-10-05T18:10:42.709Z,70.85
2017-10-05T18:11:41.789Z,71.33
2017-10-05T18:13:37.501Z,71.23
2017-10-05T18:14:36.213Z,70.95
2017-10-05T18:16:29.603Z,71.42
2017-10-05T18:17:29.802Z,70.85
2017-10-05T18:19:24.003Z,70.66
2017-10-05T18:20:23.970Z,70.47
2017-10-05T18:22:17.773Z,71.81
2017-10-05T18:23:17.977Z,71.77
2017-10-05T18:25:12.062Z,71.68
2017-10-05T18:26:12.118Z,71.58
2017-10-05T18:28:20.062Z,71.42
2017-10-05T18:29:20.203Z,71.62
2017-10-05T18:31:13.333Z,71.30
2017-10-05T18:32:13.400Z,71.39
2017-10-05T18:34:07.515Z,71.81
2017-10-05T18:35:07.568Z,71.68
2017-10-05T18:37:03.209Z,71.20
2017-10-05T18:38:03.134Z,71.39
2017-10-05T18:39:58.237Z,71.30
2017-10-05T18:40:58.231Z,71.20
2017-10-05T18:42:51.729Z,71.77